首页
METAR-TAF:

METAR-TAF

机场 :

尼古拉耶夫, 乌克兰

纬度: 47-03-29N, 经度: 031-55-15E, 海拔: 56米

当前天气观测

该预报发布于23分钟前的04:30 UTC
风速12节,风向
温度 3°C
湿度 100%
气压 1006 hPa
能見度: 0250

METAR: UKON 290430Z 18006MPS 0250 FG VV001 03/03 Q1006 NOSIG

时间: 06:53 (04:53 UTC)

预报

该预报发布于2小时和49分钟前的02:04 UTC
预报有效从29日的 03点(UTC)到 29日的 12点(UTC)
风速6节,风向
能見度: 0200
层高于100英尺
短暂存在
从 29日的 05点(UTC)到 29日的 09点(UTC)
能見度: 1000
多云层高于300英尺
多云层高于2000英尺, 积雨云.
轻雾
成为
从 29日的 09点(UTC)到 29日的 11点(UTC)
风速12节,风向,有时为23节阵风
能見度: 2100
多云层高于300英尺
多云层高于1700英尺, 积雨云.
小阵雨, 轻雾

TAF: UKON 290204Z 2903/2912 17003MPS 0200 FG VV001 TX07/2912Z TN03/2903Z TEMPO 2905/2909 1000 BR BKN003 BKN020CB BECMG 2909/2911 19006G12MPS 2100 -SHRA BR BKN003 BKN017CB

超过4000个机场的气象观测和天气预报(METAR&TAF报告)。

可查询的气象台以黄色和红色小点在地图上表示。

将鼠标移到小点上方,可查看气象台名称。

然后点击查看天气观测和预报。

如需切换地图:点击带黑十字的绿色按钮放大地图;点击带横线的绿色按钮缩小地图;或者点击绿色箭头查看邻近地区的地图。


METAR-TAF: